Airfield :
LOGIN :

Register | Disclaimer

   EN    FR    IT 

 










Legend :    VFR   Marginal VFR   IFR   Intensive IFR   Very Intensive IFR
Visi :
Ceiling :
>= 8 km
>= 3000ft
5 to 8 km
1000 to 3000 ft
1500m to 5 km
500 to 1000 ft
800 to 1500m
200 to 500 ft
< 800m
< 200 ft
Symbols :   Thunderstorms  Fog  Heavy snow  Heavy precipitations  Wind > 20 kt
SIGMETs :     Misc.  Thunderstorms  Icing  Turbulence  Mountain Waves  Volcanic Ashes







- Airport Elevation : -11 ft
- IATA code : AMS


EHAM - Amsterdam Schiphol

CURRENT METAR :
  • 202125Z 22008KT 9999 FEW013 BKN017 10/08 Q1034 NOSIG

EXPIRED METARs :
  • 202055Z 23008KT 9999 SCT010 BKN017 10/08 Q1034 TEMPO BKN012
  • 202025Z 24007KT 210V270 9999 FEW010 SCT016 09/08 Q1034 NOSIG
  • 201955Z 23011KT 200V260 9999 FEW008 OVC010 10/08 Q1034 BECMG BKN016
  • 201925Z 23011KT 200V270 9999 BKN010 10/08 Q1034 BECMG BKN016
  • 201855Z 22011KT 9999 BKN010 10/08 Q1033 NOSIG

TAF TAF EHAM
Valid from the 20 at 18:00 until the 22 at 00:00 UTC


201710Z 2018/2124 24011KT 9999 SCT015 BKN025
BECMG 2018/2021 21006KT
BECMG 2021/2024 6000 BKN012
BECMG 2101/2104 4500 BR BKN006
PROB30 2104/2109 2500 BKN004
BECMG 2109/2112 25010KT 9999 NSW BKN021
BECMG 2117/2120 20005KT
BECMG 2120/2123 6000
No reported NOTAMs for that airfield.



MET'MAP, your aeronautical weather chart ! - Copyright ORBIFLY December 2007 - Disclaimer

ORBIFLY MET'MAP TEAM :

Programming & Development : Alexandra Zaïnal
Concept & Development : Baudouin d'Aumeries
Co-Development & Prog : Marc-Olivier Méhu
Technical & hardware support : Manuel Goepfert

Contact : metmap@orbifly.com




SOURCES & CREDITS :

   NOAA